createdAt,value
2023-03-01T00:01:42.313Z,15.05
2023-03-01T00:04:10.103Z,17.42
2023-03-01T00:06:38.522Z,19.27
2023-03-01T00:09:06.230Z,13.50
2023-03-01T00:11:35.363Z,22.98
2023-03-01T00:14:06.175Z,15.23
2023-03-01T00:16:42.089Z,13.18
2023-03-01T00:19:14.381Z,13.93
2023-03-01T00:21:42.479Z,22.88
2023-03-01T00:24:11.637Z,15.63
2023-03-01T00:26:39.899Z,16.20
2023-03-01T00:29:07.812Z,14.75
2023-03-01T00:31:36.003Z,18.45
2023-03-01T00:34:06.270Z,13.50
2023-03-01T00:36:37.142Z,16.70
2023-03-01T00:39:06.994Z,22.85
2023-03-01T00:41:35.867Z,31.27
2023-03-01T00:44:03.712Z,29.00
2023-03-01T00:46:35.520Z,28.85
2023-03-01T00:49:05.642Z,28.13
2023-03-01T00:51:33.696Z,27.77
2023-03-01T00:54:03.555Z,23.35
2023-03-01T00:56:32.441Z,21.10
2023-03-01T00:59:00.552Z,21.75
2023-03-01T01:01:33.515Z,19.77
2023-03-01T01:04:07.303Z,18.98
2023-03-01T01:06:46.694Z,24.77
2023-03-01T01:09:19.654Z,20.02
2023-03-01T01:11:49.268Z,21.40
2023-03-01T01:14:17.995Z,23.20
2023-03-01T01:16:45.715Z,17.85
2023-03-01T01:19:14.520Z,22.27
2023-03-01T01:21:44.342Z,20.73
2023-03-01T01:24:12.975Z,16.15
2023-03-01T01:26:40.584Z,20.13
2023-03-01T01:29:08.504Z,17.50
2023-03-01T01:31:38.072Z,16.73
2023-03-01T01:34:08.207Z,17.33
2023-03-01T01:36:36.014Z,19.63
2023-03-01T01:39:04.360Z,17.33
2023-03-01T01:41:32.470Z,18.60
2023-03-01T01:44:40.081Z,16.17
2023-03-01T01:47:18.483Z,15.85
2023-03-01T01:49:57.293Z,16.98
2023-03-01T01:52:37.043Z,13.35
2023-03-01T01:55:09.771Z,15.20
2023-03-01T01:57:43.005Z,14.93
2023-03-01T02:00:20.266Z,15.98
2023-03-01T02:02:50.460Z,16.67
2023-03-01T02:05:37.634Z,15.30
2023-03-01T02:08:05.648Z,14.10
2023-03-01T02:10:35.690Z,12.60
2023-03-01T02:13:04.672Z,13.45
2023-03-01T02:15:37.503Z,17.15
2023-03-01T02:18:06.561Z,17.80
2023-03-01T02:20:52.403Z,14.50
2023-03-01T02:23:20.156Z,12.10
2023-03-01T02:26:14.913Z,14.15
2023-03-01T02:28:45.053Z,16.50
2023-03-01T02:31:35.635Z,13.82
2023-03-01T02:34:05.883Z,13.50
2023-03-01T02:36:41.757Z,13.75
2023-03-01T02:39:15.477Z,11.88
2023-03-01T02:41:47.832Z,13.27
2023-03-01T02:44:15.770Z,13.17
2023-03-01T02:46:45.975Z,13.10
2023-03-01T02:49:27.595Z,13.88
2023-03-01T02:52:13.786Z,13.77
2023-03-01T02:55:04.422Z,13.45
2023-03-01T02:57:34.488Z,12.63
2023-03-01T03:00:09.537Z,15.25
2023-03-01T03:02:37.393Z,12.95
2023-03-01T03:05:14.000Z,13.38
2023-03-01T03:07:44.136Z,12.35
2023-03-01T03:10:21.852Z,14.18
2023-03-01T03:13:01.217Z,13.15
2023-03-01T03:15:30.145Z,14.80
2023-03-01T03:17:59.934Z,14.77
2023-03-01T03:20:29.202Z,13.60
2023-03-01T03:23:01.735Z,13.63
2023-03-01T03:25:30.125Z,13.88
2023-03-01T03:27:59.072Z,12.27
2023-03-01T03:30:29.942Z,12.25
2023-03-01T03:32:59.141Z,13.02
2023-03-01T03:35:32.692Z,11.10
2023-03-01T03:38:02.806Z,15.07
2023-03-01T03:40:34.521Z,13.52
2023-03-01T03:43:02.894Z,13.50
2023-03-01T03:45:30.470Z,16.85
2023-03-01T03:47:57.963Z,13.98
2023-03-01T03:50:25.619Z,14.80
2023-03-01T03:52:53.925Z,15.35
2023-03-01T03:55:21.547Z,14.40
2023-03-01T03:57:52.736Z,12.23
2023-03-01T04:00:22.808Z,12.48
2023-03-01T04:02:51.711Z,13.30
2023-03-01T04:05:20.475Z,14.30
2023-03-01T04:07:48.021Z,14.10
2023-03-01T04:10:19.565Z,13.93
2023-03-01T04:12:47.121Z,12.90
2023-03-01T04:15:14.690Z,17.17
2023-03-01T04:17:47.118Z,13.07
2023-03-01T04:20:25.702Z,13.05
2023-03-01T04:22:58.530Z,15.82
2023-03-01T04:25:26.752Z,15.93
2023-03-01T04:27:54.226Z,16.42
2023-03-01T04:30:26.612Z,18.17
2023-03-01T04:32:54.042Z,11.52
2023-03-01T04:35:21.811Z,13.43
2023-03-01T04:37:50.369Z,13.65
2023-03-01T04:40:18.250Z,15.25
2023-03-01T04:42:45.719Z,15.60
2023-03-01T04:45:14.297Z,14.23
2023-03-01T04:47:43.907Z,15.52
2023-03-01T04:50:14.030Z,14.80
2023-03-01T04:52:41.854Z,13.52
2023-03-01T04:55:10.424Z,13.85
2023-03-01T04:57:38.274Z,15.73
2023-03-01T05:00:20.959Z,13.05
2023-03-01T05:03:00.684Z,10.27
2023-03-01T05:05:31.748Z,15.95
2023-03-01T05:08:01.490Z,16.25
2023-03-01T05:10:31.306Z,14.45
2023-03-01T05:12:59.762Z,14.23
2023-03-01T05:15:29.515Z,12.52
2023-03-01T05:18:00.198Z,16.83
2023-03-01T05:20:29.694Z,14.80
2023-03-01T05:23:06.444Z,17.08
2023-03-01T05:25:35.387Z,13.43
2023-03-01T05:28:05.552Z,12.90
2023-03-01T05:30:34.965Z,13.80
2023-03-01T05:33:02.802Z,14.40
2023-03-01T05:35:30.759Z,16.13
2023-03-01T05:37:58.187Z,14.55
2023-03-01T05:40:25.863Z,13.98
2023-03-01T05:42:57.958Z,13.10
2023-03-01T05:45:27.109Z,10.20
2023-03-01T05:47:56.189Z,13.73
2023-03-01T05:50:29.480Z,15.48
2023-03-01T05:53:16.165Z,16.05
2023-03-01T05:55:45.303Z,15.00
2023-03-01T05:58:20.630Z,13.23
2023-03-01T06:00:49.887Z,15.30
2023-03-01T06:03:18.474Z,17.60
2023-03-01T06:05:46.461Z,14.13
2023-03-01T06:08:14.801Z,13.32
2023-03-01T06:10:42.279Z,16.83
2023-03-01T06:13:09.951Z,17.73
2023-03-01T06:15:37.731Z,18.42
2023-03-01T06:18:05.411Z,15.85
2023-03-01T06:20:32.888Z,14.80
2023-03-01T06:23:01.316Z,15.10
2023-03-01T06:25:29.112Z,19.92
2023-03-01T06:27:56.714Z,15.73
2023-03-01T06:30:26.654Z,16.08
2023-03-01T06:33:01.848Z,14.57
2023-03-01T06:35:31.056Z,17.73
2023-03-01T06:38:03.525Z,15.68
2023-03-01T06:40:32.313Z,14.93
2023-03-01T06:43:00.571Z,18.10
2023-03-01T06:45:28.245Z,20.52
2023-03-01T06:48:04.611Z,17.65
2023-03-01T06:50:32.391Z,17.88
2023-03-01T06:53:00.373Z,15.73
2023-03-01T06:55:28.163Z,15.90
2023-03-01T06:58:00.109Z,15.45
2023-03-01T07:00:28.793Z,15.55
2023-03-01T07:02:59.280Z,16.00
2023-03-01T07:05:26.784Z,16.55
2023-03-01T07:07:55.305Z,17.63
2023-03-01T07:10:23.060Z,16.50
2023-03-01T07:12:50.524Z,12.98
2023-03-01T07:15:18.350Z,13.43
2023-03-01T07:17:48.703Z,17.73
2023-03-01T07:20:16.368Z,13.20
2023-03-01T07:22:44.020Z,11.82
2023-03-01T07:25:12.425Z,14.77
2023-03-01T07:27:39.854Z,15.23
2023-03-01T07:30:08.324Z,18.42
2023-03-01T07:32:36.060Z,16.25
2023-03-01T07:35:04.016Z,16.48
2023-03-01T07:37:31.769Z,18.00
2023-03-01T07:39:59.228Z,13.25
2023-03-01T07:42:26.737Z,14.23
2023-03-01T07:44:54.248Z,12.80
2023-03-01T07:47:21.752Z,14.98
2023-03-01T07:49:49.208Z,14.07
2023-03-01T07:52:16.856Z,12.93
2023-03-01T07:54:45.683Z,14.55
2023-03-01T07:57:13.515Z,14.48
2023-03-01T07:59:41.008Z,15.57
2023-03-01T08:02:10.592Z,16.73
2023-03-01T08:04:38.290Z,15.98
2023-03-01T08:07:06.954Z,15.10
2023-03-01T08:09:37.669Z,16.42
2023-03-01T08:12:06.172Z,15.80
2023-03-01T08:14:34.287Z,15.98
2023-03-01T08:17:04.060Z,14.20
2023-03-01T08:19:31.818Z,15.48
2023-03-01T08:22:00.966Z,16.08
2023-03-01T08:24:29.032Z,14.15
2023-03-01T08:26:56.973Z,15.95
2023-03-01T08:29:25.859Z,15.07
2023-03-01T08:31:53.560Z,15.32
2023-03-01T08:34:21.178Z,14.52
2023-03-01T08:36:48.987Z,14.80
2023-03-01T08:39:19.442Z,11.30
2023-03-01T08:41:48.259Z,13.38
2023-03-01T08:44:17.980Z,11.75
2023-03-01T08:46:46.690Z,17.23
2023-03-01T08:49:16.510Z,15.40
2023-03-01T08:51:45.606Z,12.63
2023-03-01T08:54:16.051Z,16.77
2023-03-01T08:56:43.866Z,13.82
2023-03-01T08:59:16.485Z,13.77
2023-03-01T09:01:47.029Z,14.32
2023-03-01T09:04:16.910Z,11.10
2023-03-01T09:06:44.608Z,13.35
2023-03-01T09:09:17.083Z,11.18
2023-03-01T09:11:47.451Z,10.63
2023-03-01T09:14:15.794Z,11.32
2023-03-01T09:16:43.790Z,12.05
2023-03-01T09:19:12.259Z,12.45
2023-03-01T09:21:41.280Z,12.88
2023-03-01T09:24:16.234Z,11.77
2023-03-01T09:26:48.861Z,11.35
2023-03-01T09:29:18.005Z,12.38
2023-03-01T09:31:45.721Z,9.02
2023-03-01T09:34:14.920Z,11.52
2023-03-01T09:36:42.445Z,10.20
2023-03-01T09:39:09.965Z,9.85
2023-03-01T09:41:38.130Z,11.27
2023-03-01T09:44:23.000Z,10.20
2023-03-01T09:46:52.340Z,9.00
2023-03-01T09:49:29.449Z,15.88
2023-03-01T09:52:02.691Z,12.95
2023-03-01T09:54:30.296Z,12.00
2023-03-01T09:57:30.320Z,9.30
2023-03-01T10:00:36.640Z,11.10
2023-03-01T10:03:18.005Z,14.32
2023-03-01T10:05:57.203Z,13.30
2023-03-01T10:08:40.151Z,11.60
2023-03-01T10:11:25.238Z,13.83
2023-03-01T10:14:23.810Z,13.75
2023-03-01T10:17:05.846Z,10.98
2023-03-01T10:19:48.748Z,13.77
2023-03-01T10:22:23.512Z,12.37
2023-03-01T10:24:55.064Z,10.48
2023-03-01T10:27:26.716Z,13.27
2023-03-01T10:30:03.843Z,9.77
2023-03-01T10:32:32.194Z,13.15
2023-03-01T10:34:59.833Z,11.93
2023-03-01T10:37:28.510Z,10.27
2023-03-01T10:40:16.485Z,11.48
2023-03-01T10:42:51.290Z,10.63
2023-03-01T10:45:31.256Z,13.68
2023-03-01T10:48:19.643Z,10.63
2023-03-01T10:50:49.988Z,11.52
2023-03-01T10:53:39.191Z,10.30
2023-03-01T10:56:10.893Z,9.75
2023-03-01T10:58:40.293Z,10.80
2023-03-01T11:01:19.673Z,13.45
2023-03-01T11:04:04.277Z,11.13
2023-03-01T11:06:31.733Z,9.20
2023-03-01T11:09:19.738Z,11.60
2023-03-01T11:11:52.731Z,15.00
2023-03-01T11:14:47.487Z,10.88
2023-03-01T11:17:38.993Z,12.32
2023-03-01T11:20:14.857Z,12.10
2023-03-01T11:22:54.810Z,11.70
2023-03-01T11:25:28.146Z,10.48
2023-03-01T11:27:57.952Z,11.57
2023-03-01T11:31:08.161Z,10.52
2023-03-01T11:33:49.367Z,11.93
2023-03-01T11:36:19.665Z,8.63
2023-03-01T11:38:48.447Z,9.88
2023-03-01T11:41:30.002Z,9.43
2023-03-01T11:44:20.052Z,9.90
2023-03-01T11:46:59.318Z,11.55
2023-03-01T11:49:55.692Z,10.75
2023-03-01T11:52:54.300Z,10.00
2023-03-01T11:55:49.354Z,9.93
2023-03-01T11:58:38.630Z,10.70
2023-03-01T12:01:27.054Z,10.70
2023-03-01T12:04:26.437Z,9.70
2023-03-01T12:06:58.929Z,10.68
2023-03-01T12:09:29.133Z,9.57
2023-03-01T12:12:18.200Z,10.55
2023-03-01T12:15:19.490Z,10.65
2023-03-01T12:18:00.631Z,13.18
2023-03-01T12:20:37.306Z,10.93
2023-03-01T12:23:21.109Z,12.82
2023-03-01T12:26:13.289Z,11.13
2023-03-01T12:29:18.126Z,9.82
2023-03-01T12:31:45.656Z,8.98
2023-03-01T12:34:29.706Z,13.02
2023-03-01T12:37:25.848Z,11.20
2023-03-01T12:40:13.170Z,10.60
2023-03-01T12:42:58.712Z,12.00
2023-03-01T12:45:52.092Z,12.38
2023-03-01T12:48:32.499Z,9.05
2023-03-01T12:51:06.610Z,12.65
2023-03-01T12:53:40.124Z,9.27
2023-03-01T12:58:56.855Z,10.27
2023-03-01T13:01:37.749Z,11.02
2023-03-01T13:04:38.014Z,10.55
2023-03-01T13:07:17.451Z,12.25
2023-03-01T13:10:17.552Z,10.63
2023-03-01T13:12:48.040Z,9.75
2023-03-01T13:15:24.873Z,16.58
2023-03-01T13:17:57.076Z,9.40
2023-03-01T13:20:48.897Z,10.85
2023-03-01T13:23:22.650Z,11.10
2023-03-01T13:26:14.226Z,11.10
2023-03-01T13:28:50.449Z,9.02
2023-03-01T13:31:22.001Z,11.15
2023-03-01T13:33:49.835Z,11.57
2023-03-01T13:36:50.246Z,11.07
2023-03-01T13:39:33.690Z,10.32
2023-03-01T13:42:01.938Z,10.32
2023-03-01T13:44:39.856Z,13.65
2023-03-01T13:47:07.419Z,13.00
2023-03-01T13:49:46.779Z,10.52
2023-03-01T13:52:40.850Z,10.80
2023-03-01T13:55:24.679Z,10.90
2023-03-01T14:00:48.202Z,9.35
2023-03-01T14:03:21.145Z,10.85
2023-03-01T14:06:14.547Z,10.02
2023-03-01T14:08:43.844Z,8.15
2023-03-01T14:11:35.085Z,12.63
2023-03-01T14:14:20.935Z,10.23
2023-03-01T14:16:58.057Z,10.20
2023-03-01T14:19:33.415Z,8.50
2023-03-01T14:22:22.247Z,9.18
2023-03-01T14:24:53.143Z,9.68
2023-03-01T14:27:20.988Z,9.30
2023-03-01T14:30:04.463Z,11.00
2023-03-01T14:32:33.692Z,12.68
2023-03-01T14:35:02.162Z,8.73
2023-03-01T14:37:32.592Z,11.98
2023-03-01T14:40:02.219Z,13.00
2023-03-01T14:42:37.488Z,11.10
2023-03-01T14:45:08.142Z,13.52
2023-03-01T14:47:37.697Z,9.52
2023-03-01T14:50:28.458Z,12.00
2023-03-01T14:53:09.220Z,8.10
2023-03-01T14:55:45.814Z,8.15
2023-03-01T14:58:16.874Z,11.45
2023-03-01T15:00:57.708Z,10.35
2023-03-01T15:03:30.795Z,11.18
2023-03-01T15:05:59.025Z,10.43
2023-03-01T15:08:27.951Z,10.00
2023-03-01T15:11:18.497Z,9.45
2023-03-01T15:13:47.610Z,9.35
2023-03-01T15:16:18.015Z,9.82
2023-03-01T15:18:57.091Z,9.80
2023-03-01T15:21:29.632Z,8.80
2023-03-01T15:24:21.932Z,10.25
2023-03-01T15:27:03.064Z,10.13
2023-03-01T15:29:34.541Z,10.20
2023-03-01T15:32:05.284Z,10.88
2023-03-01T15:34:35.244Z,9.80
2023-03-01T15:37:06.670Z,9.27
2023-03-01T15:39:44.523Z,9.35
2023-03-01T15:42:13.479Z,8.57
2023-03-01T15:44:46.275Z,11.52
2023-03-01T15:47:26.572Z,10.13
2023-03-01T15:49:56.143Z,9.20
2023-03-01T15:52:30.553Z,8.18
2023-03-01T15:55:03.191Z,10.95
2023-03-01T15:57:31.037Z,10.00
2023-03-01T15:59:58.488Z,8.75
2023-03-01T16:02:26.187Z,7.75
2023-03-01T16:04:54.881Z,8.30
2023-03-01T16:07:22.453Z,8.68
2023-03-01T16:09:49.920Z,9.32
2023-03-01T16:12:18.044Z,8.35
2023-03-01T16:14:45.588Z,8.02
2023-03-01T16:17:13.276Z,6.70
2023-03-01T16:19:41.600Z,10.88
2023-03-01T16:22:11.711Z,9.13
2023-03-01T16:24:39.521Z,10.82
2023-03-01T16:27:07.051Z,9.18
2023-03-01T16:29:34.632Z,7.60
2023-03-01T16:32:03.388Z,10.00
2023-03-01T16:34:31.113Z,9.70
2023-03-01T16:36:58.692Z,8.43
2023-03-01T16:39:26.401Z,8.30
2023-03-01T16:41:53.979Z,10.00
2023-03-01T16:44:21.987Z,10.00
2023-03-01T16:46:49.482Z,10.68
2023-03-01T16:49:16.955Z,10.13
2023-03-01T16:51:45.408Z,18.67
2023-03-01T16:54:12.958Z,11.60
2023-03-01T16:56:40.751Z,9.35
2023-03-01T16:59:08.510Z,10.45
2023-03-01T17:01:40.678Z,9.07
2023-03-01T17:04:11.368Z,11.25
2023-03-01T17:06:38.890Z,12.95
2023-03-01T17:09:06.587Z,9.93
2023-03-01T17:11:34.266Z,10.20
2023-03-01T17:14:02.216Z,9.93
2023-03-01T17:16:29.949Z,13.80
2023-03-01T17:18:57.658Z,7.50
2023-03-01T17:21:25.207Z,10.68
2023-03-01T17:23:57.642Z,9.13
2023-03-01T17:26:25.663Z,9.85
2023-03-01T17:28:53.301Z,12.55
2023-03-01T17:31:21.007Z,8.30
2023-03-01T17:33:50.101Z,10.82
2023-03-01T17:36:17.961Z,8.13
2023-03-01T17:38:46.442Z,10.75
2023-03-01T17:41:16.111Z,8.38
2023-03-01T17:43:43.852Z,12.27
2023-03-01T17:46:12.467Z,8.35
2023-03-01T17:48:40.245Z,10.27
2023-03-01T17:51:12.601Z,10.02
2023-03-01T17:53:40.080Z,11.80
2023-03-01T17:56:08.295Z,9.25
2023-03-01T17:58:36.027Z,11.35
2023-03-01T18:01:34.027Z,11.15
2023-03-01T18:04:01.690Z,10.77
2023-03-01T18:06:29.867Z,9.40
2023-03-01T18:08:57.822Z,12.25
2023-03-01T18:11:26.088Z,11.05
2023-03-01T18:13:54.852Z,12.77
2023-03-01T18:16:23.365Z,11.55
2023-03-01T18:18:55.472Z,12.57
2023-03-01T18:21:23.788Z,12.40
2023-03-01T18:23:51.604Z,10.15
2023-03-01T18:26:22.320Z,9.98
2023-03-01T18:28:51.882Z,13.57
2023-03-01T18:31:22.756Z,10.80
2023-03-01T18:33:53.385Z,11.63
2023-03-01T18:36:25.414Z,13.40
2023-03-01T18:38:56.315Z,12.68
2023-03-01T18:41:25.754Z,9.88
2023-03-01T18:43:54.015Z,12.30
2023-03-01T18:46:22.186Z,11.43
2023-03-01T18:48:49.829Z,14.88
2023-03-01T18:51:23.673Z,14.70
2023-03-01T18:53:51.362Z,10.82
2023-03-01T18:56:19.000Z,13.23
2023-03-01T18:58:46.690Z,13.52
2023-03-01T19:01:16.810Z,12.95
2023-03-01T19:03:44.450Z,11.43
2023-03-01T19:06:12.259Z,13.00
2023-03-01T19:08:42.269Z,12.38
2023-03-01T19:11:11.022Z,14.65
2023-03-01T19:13:40.319Z,13.77
2023-03-01T19:16:11.308Z,14.10
2023-03-01T19:18:41.266Z,12.20
2023-03-01T19:21:11.133Z,13.02
2023-03-01T19:23:39.210Z,14.75
2023-03-01T19:26:09.674Z,13.15
2023-03-01T19:28:39.606Z,15.02
2023-03-01T19:31:12.782Z,13.50
2023-03-01T19:33:40.828Z,16.52
2023-03-01T19:36:10.444Z,15.50
2023-03-01T19:38:40.091Z,16.30
2023-03-01T19:41:14.788Z,15.20
2023-03-01T19:43:43.494Z,19.90
2023-03-01T19:46:11.545Z,15.90
2023-03-01T19:48:40.513Z,14.85
2023-03-01T19:51:09.469Z,16.05
2023-03-01T19:53:39.296Z,13.95
2023-03-01T19:56:07.771Z,17.05
2023-03-01T19:58:35.857Z,16.30
2023-03-01T20:01:03.324Z,16.83
2023-03-01T20:03:35.867Z,17.77
2023-03-01T20:06:23.858Z,14.95
2023-03-01T20:08:51.625Z,16.05
2023-03-01T20:11:19.851Z,16.13
2023-03-01T20:13:47.755Z,16.08
2023-03-01T20:16:20.031Z,17.25
2023-03-01T20:18:47.520Z,17.55
2023-03-01T20:21:24.026Z,14.98
2023-03-01T20:23:52.600Z,19.70
2023-03-01T20:26:21.965Z,21.25
2023-03-01T20:28:53.651Z,16.73
2023-03-01T20:31:23.084Z,20.23
2023-03-01T20:33:50.648Z,18.33
2023-03-01T20:36:18.218Z,21.92
2023-03-01T20:38:45.665Z,18.52
2023-03-01T20:41:14.041Z,17.35
2023-03-01T20:43:42.688Z,20.42
2023-03-01T20:46:12.484Z,18.48
2023-03-01T20:48:46.054Z,17.80
2023-03-01T20:51:14.460Z,18.65
2023-03-01T20:53:42.108Z,16.92
2023-03-01T20:56:15.415Z,16.90
2023-03-01T21:01:15.584Z,17.65
2023-03-01T21:03:43.134Z,19.40
2023-03-01T21:06:11.424Z,18.52
2023-03-01T21:08:39.297Z,16.45
2023-03-01T21:11:07.436Z,15.93
2023-03-01T21:13:36.367Z,22.17
2023-03-01T21:16:07.818Z,19.13
2023-03-01T21:18:37.053Z,17.05
2023-03-01T21:21:08.071Z,18.08
2023-03-01T21:23:37.767Z,20.95
2023-03-01T21:26:14.787Z,16.35
2023-03-01T21:28:43.299Z,17.10
2023-03-01T21:31:16.956Z,19.40
2023-03-01T21:33:49.171Z,17.45
2023-03-01T21:36:17.228Z,15.88
2023-03-01T21:38:47.325Z,18.08
2023-03-01T21:41:27.174Z,19.30
2023-03-01T21:44:06.857Z,19.38
2023-03-01T21:46:37.276Z,19.17
2023-03-01T21:49:05.381Z,19.73
2023-03-01T21:51:33.717Z,18.08
2023-03-01T21:54:04.069Z,18.25
2023-03-01T21:56:35.256Z,19.75
2023-03-01T21:59:03.621Z,19.67
2023-03-01T22:01:31.330Z,16.63
2023-03-01T22:04:00.848Z,17.52
2023-03-01T22:06:31.553Z,18.48
2023-03-01T22:09:06.110Z,19.40
2023-03-01T22:11:36.202Z,21.88
2023-03-01T22:14:05.039Z,19.48
2023-03-01T22:16:35.921Z,19.83
2023-03-01T22:19:04.675Z,18.60
2023-03-01T22:21:32.264Z,17.58
2023-03-01T22:24:00.368Z,18.27
2023-03-01T22:26:34.081Z,20.38
2023-03-01T22:29:04.743Z,22.02
2023-03-01T22:31:32.562Z,20.25
2023-03-01T22:34:00.344Z,17.73
2023-03-01T22:36:28.992Z,22.05
2023-03-01T22:39:04.414Z,22.70
2023-03-01T22:41:45.655Z,23.13
2023-03-01T22:44:15.865Z,19.80
2023-03-01T22:46:43.925Z,21.45
2023-03-01T22:49:12.417Z,24.15
2023-03-01T22:51:41.904Z,23.95
2023-03-01T22:54:10.678Z,27.95
2023-03-01T22:56:39.419Z,20.90
2023-03-01T22:59:12.734Z,24.10
2023-03-01T23:04:08.852Z,22.52
2023-03-01T23:06:50.245Z,26.33
2023-03-01T23:09:24.182Z,23.73
2023-03-01T23:11:52.485Z,23.00
2023-03-01T23:14:21.408Z,29.25
2023-03-01T23:16:51.006Z,21.55
2023-03-01T23:19:19.136Z,18.85
2023-03-01T23:21:50.236Z,20.05
2023-03-01T23:24:19.926Z,19.27
2023-03-01T23:26:53.457Z,21.45
2023-03-01T23:29:21.923Z,19.58
2023-03-01T23:31:49.541Z,20.83
2023-03-01T23:34:17.185Z,20.20
2023-03-01T23:36:47.657Z,23.08
2023-03-01T23:39:15.389Z,19.45
2023-03-01T23:41:43.122Z,22.58
2023-03-01T23:44:20.211Z,22.70
2023-03-01T23:46:49.012Z,22.75
2023-03-01T23:49:19.968Z,20.20
2023-03-01T23:51:47.971Z,20.65
2023-03-01T23:54:21.446Z,19.27
2023-03-01T23:56:49.225Z,20.38
2023-03-01T23:59:20.728Z,25.13
